sensor_id;sensor_type;location;lat;lon;timestamp;temperature;humidity
23081;DHT22;11708;50.570;8.532;2022-12-29T00:01:40;10.30;99.90
23081;DHT22;11708;50.570;8.532;2022-12-29T00:04:06;10.30;99.90
23081;DHT22;11708;50.570;8.532;2022-12-29T00:06:31;10.10;99.90
23081;DHT22;11708;50.570;8.532;2022-12-29T00:08:57;10.90;99.90
23081;DHT22;11708;50.570;8.532;2022-12-29T00:11:26;10.40;99.90
23081;DHT22;11708;50.570;8.532;2022-12-29T00:13:53;10.50;99.90
23081;DHT22;11708;50.570;8.532;2022-12-29T00:16:38;10.60;99.90
23081;DHT22;11708;50.570;8.532;2022-12-29T00:19:05;10.50;99.90
23081;DHT22;11708;50.570;8.532;2022-12-29T00:21:31;10.60;99.90
23081;DHT22;11708;50.570;8.532;2022-12-29T00:24:19;10.60;99.90
23081;DHT22;11708;50.570;8.532;2022-12-29T00:27:09;10.70;99.90
23081;DHT22;11708;50.570;8.532;2022-12-29T00:29:54;10.80;99.90
23081;DHT22;11708;50.570;8.532;2022-12-29T00:32:38;10.80;99.90
23081;DHT22;11708;50.570;8.532;2022-12-29T00:35:34;10.80;99.90
23081;DHT22;11708;50.570;8.532;2022-12-29T00:38:04;10.90;99.90
23081;DHT22;11708;50.570;8.532;2022-12-29T00:43:34;11.10;99.90
23081;DHT22;11708;50.570;8.532;2022-12-29T00:46:18;11.10;99.90
23081;DHT22;11708;50.570;8.532;2022-12-29T00:48:44;11.20;99.90
23081;DHT22;11708;50.570;8.532;2022-12-29T00:51:28;11.20;99.90
23081;DHT22;11708;50.570;8.532;2022-12-29T00:53:54;11.20;99.90
23081;DHT22;11708;50.570;8.532;2022-12-29T00:56:19;11.30;99.90
23081;DHT22;11708;50.570;8.532;2022-12-29T00:58:45;11.30;99.90
23081;DHT22;11708;50.570;8.532;2022-12-29T01:01:11;11.30;99.90
23081;DHT22;11708;50.570;8.532;2022-12-29T01:03:37;11.30;99.90
23081;DHT22;11708;50.570;8.532;2022-12-29T01:06:06;11.30;99.90
23081;DHT22;11708;50.570;8.532;2022-12-29T01:08:32;11.30;99.90
23081;DHT22;11708;50.570;8.532;2022-12-29T01:11:03;11.40;99.90
23081;DHT22;11708;50.570;8.532;2022-12-29T01:13:29;11.30;99.90
23081;DHT22;11708;50.570;8.532;2022-12-29T01:18:22;11.30;99.90
23081;DHT22;11708;50.570;8.532;2022-12-29T01:20:48;11.30;99.90
23081;DHT22;11708;50.570;8.532;2022-12-29T01:25:39;11.30;99.90
23081;DHT22;11708;50.570;8.532;2022-12-29T01:32:59;11.20;99.90
23081;DHT22;11708;50.570;8.532;2022-12-29T01:35:24;11.10;99.90
23081;DHT22;11708;50.570;8.532;2022-12-29T01:37:50;11.10;99.90
23081;DHT22;11708;50.570;8.532;2022-12-29T01:40:16;11.10;99.90
23081;DHT22;11708;50.570;8.532;2022-12-29T01:42:41;11.10;99.90
23081;DHT22;11708;50.570;8.532;2022-12-29T01:45:12;11.60;99.90
23081;DHT22;11708;50.570;8.532;2022-12-29T01:47:53;11.00;99.90
23081;DHT22;11708;50.570;8.532;2022-12-29T01:50:28;11.00;99.90
23081;DHT22;11708;50.570;8.532;2022-12-29T01:53:13;11.00;99.90
23081;DHT22;11708;50.570;8.532;2022-12-29T01:55:43;11.00;99.90
23081;DHT22;11708;50.570;8.532;2022-12-29T01:58:11;10.90;99.90
23081;DHT22;11708;50.570;8.532;2022-12-29T02:00:38;10.90;99.90
23081;DHT22;11708;50.570;8.532;2022-12-29T02:03:05;10.90;99.90
23081;DHT22;11708;50.570;8.532;2022-12-29T02:08:01;10.90;99.90
23081;DHT22;11708;50.570;8.532;2022-12-29T02:10:29;10.90;99.90
23081;DHT22;11708;50.570;8.532;2022-12-29T02:12:56;10.90;99.90
23081;DHT22;11708;50.570;8.532;2022-12-29T02:18:17;11.00;99.90
23081;DHT22;11708;50.570;8.532;2022-12-29T02:29:21;10.80;99.90
23081;DHT22;11708;50.570;8.532;2022-12-29T02:32:03;10.80;99.90
23081;DHT22;11708;50.570;8.532;2022-12-29T02:34:54;10.80;99.90
23081;DHT22;11708;50.570;8.532;2022-12-29T02:37:27;10.70;99.90
23081;DHT22;11708;50.570;8.532;2022-12-29T02:40:13;10.80;99.90
23081;DHT22;11708;50.570;8.532;2022-12-29T02:42:59;10.80;99.90
23081;DHT22;11708;50.570;8.532;2022-12-29T02:45:52;10.80;99.90
23081;DHT22;11708;50.570;8.532;2022-12-29T02:51:25;10.90;99.90
23081;DHT22;11708;50.570;8.532;2022-12-29T02:53:53;10.90;99.90
23081;DHT22;11708;50.570;8.532;2022-12-29T02:56:38;11.00;99.90
23081;DHT22;11708;50.570;8.532;2022-12-29T02:59:03;11.00;99.90
23081;DHT22;11708;50.570;8.532;2022-12-29T03:05:05;10.90;99.90
23081;DHT22;11708;50.570;8.532;2022-12-29T03:12:55;10.90;99.90
23081;DHT22;11708;50.570;8.532;2022-12-29T03:15:55;10.90;99.90
23081;DHT22;11708;50.570;8.532;2022-12-29T03:21:23;10.80;99.90
23081;DHT22;11708;50.570;8.532;2022-12-29T03:24:10;10.80;99.90
23081;DHT22;11708;50.570;8.532;2022-12-29T03:26:37;11.10;99.90
23081;DHT22;11708;50.570;8.532;2022-12-29T03:29:03;10.70;99.90
23081;DHT22;11708;50.570;8.532;2022-12-29T03:31:31;10.70;99.90
23081;DHT22;11708;50.570;8.532;2022-12-29T03:33:56;10.70;99.90
23081;DHT22;11708;50.570;8.532;2022-12-29T03:36:29;10.70;99.90
23081;DHT22;11708;50.570;8.532;2022-12-29T03:39:01;10.70;99.90
23081;DHT22;11708;50.570;8.532;2022-12-29T03:41:31;10.70;99.90
23081;DHT22;11708;50.570;8.532;2022-12-29T03:43:57;10.60;99.90
23081;DHT22;11708;50.570;8.532;2022-12-29T03:48:49;10.60;99.90
23081;DHT22;11708;50.570;8.532;2022-12-29T03:51:14;10.60;99.90
23081;DHT22;11708;50.570;8.532;2022-12-29T03:53:40;10.50;99.90
23081;DHT22;11708;50.570;8.532;2022-12-29T03:56:05;10.50;99.90
23081;DHT22;11708;50.570;8.532;2022-12-29T03:58:31;10.40;99.90
23081;DHT22;11708;50.570;8.532;2022-12-29T04:00:57;10.50;99.90
23081;DHT22;11708;50.570;8.532;2022-12-29T04:03:22;10.50;99.90
23081;DHT22;11708;50.570;8.532;2022-12-29T04:05:48;11.50;99.90
23081;DHT22;11708;50.570;8.532;2022-12-29T04:13:05;10.50;99.90
23081;DHT22;11708;50.570;8.532;2022-12-29T04:15:31;10.70;99.90
23081;DHT22;11708;50.570;8.532;2022-12-29T04:17:57;9.40;99.90
23081;DHT22;11708;50.570;8.532;2022-12-29T04:20:22;10.70;99.90
23081;DHT22;11708;50.570;8.532;2022-12-29T04:25:33;10.80;99.90
23081;DHT22;11708;50.570;8.532;2022-12-29T04:27:59;11.30;99.90
23081;DHT22;11708;50.570;8.532;2022-12-29T04:30:25;10.80;99.90
23081;DHT22;11708;50.570;8.532;2022-12-29T04:32:50;10.80;99.90
23081;DHT22;11708;50.570;8.532;2022-12-29T04:35:16;10.80;99.90
23081;DHT22;11708;50.570;8.532;2022-12-29T04:37:41;10.90;99.90
23081;DHT22;11708;50.570;8.532;2022-12-29T04:40:08;10.90;99.90
23081;DHT22;11708;50.570;8.532;2022-12-29T04:42:33;10.90;99.90
23081;DHT22;11708;50.570;8.532;2022-12-29T04:44:59;10.90;99.90
23081;DHT22;11708;50.570;8.532;2022-12-29T04:47:25;10.80;99.90
23081;DHT22;11708;50.570;8.532;2022-12-29T04:49:50;10.80;99.90
23081;DHT22;11708;50.570;8.532;2022-12-29T04:52:16;10.80;99.90
23081;DHT22;11708;50.570;8.532;2022-12-29T04:54:41;10.80;99.90
23081;DHT22;11708;50.570;8.532;2022-12-29T04:57:07;11.20;99.90
23081;DHT22;11708;50.570;8.532;2022-12-29T04:59:32;10.80;99.90
23081;DHT22;11708;50.570;8.532;2022-12-29T05:01:58;10.70;99.90
23081;DHT22;11708;50.570;8.532;2022-12-29T05:04:23;10.80;99.90
23081;DHT22;11708;50.570;8.532;2022-12-29T05:06:49;10.80;99.90
23081;DHT22;11708;50.570;8.532;2022-12-29T05:09:15;10.80;99.90
23081;DHT22;11708;50.570;8.532;2022-12-29T05:11:40;10.50;99.90
23081;DHT22;11708;50.570;8.532;2022-12-29T05:14:06;10.70;99.90
23081;DHT22;11708;50.570;8.532;2022-12-29T05:18:57;10.50;99.90
23081;DHT22;11708;50.570;8.532;2022-12-29T05:21:23;10.60;99.90
23081;DHT22;11708;50.570;8.532;2022-12-29T05:23:48;10.50;99.90
23081;DHT22;11708;50.570;8.532;2022-12-29T05:26:14;10.50;99.90
23081;DHT22;11708;50.570;8.532;2022-12-29T05:28:40;10.20;99.90
23081;DHT22;11708;50.570;8.532;2022-12-29T05:31:05;10.40;99.90
23081;DHT22;11708;50.570;8.532;2022-12-29T05:33:31;10.40;99.90
23081;DHT22;11708;50.570;8.532;2022-12-29T05:35:56;10.60;99.90
23081;DHT22;11708;50.570;8.532;2022-12-29T05:38:22;10.40;99.90
23081;DHT22;11708;50.570;8.532;2022-12-29T05:43:14;10.50;99.90
23081;DHT22;11708;50.570;8.532;2022-12-29T05:48:06;10.50;99.90
23081;DHT22;11708;50.570;8.532;2022-12-29T05:50:31;10.40;99.90
23081;DHT22;11708;50.570;8.532;2022-12-29T05:52:57;10.40;99.90
23081;DHT22;11708;50.570;8.532;2022-12-29T05:55:22;10.40;99.90
23081;DHT22;11708;50.570;8.532;2022-12-29T05:57:48;10.40;99.90
23081;DHT22;11708;50.570;8.532;2022-12-29T06:00:14;10.40;99.90
23081;DHT22;11708;50.570;8.532;2022-12-29T06:05:05;10.50;99.90
23081;DHT22;11708;50.570;8.532;2022-12-29T06:07:31;10.50;99.90
23081;DHT22;11708;50.570;8.532;2022-12-29T06:09:56;10.50;99.90
23081;DHT22;11708;50.570;8.532;2022-12-29T06:14:48;10.50;99.90
23081;DHT22;11708;50.570;8.532;2022-12-29T06:17:14;10.50;99.90
23081;DHT22;11708;50.570;8.532;2022-12-29T06:22:05;10.60;99.90
23081;DHT22;11708;50.570;8.532;2022-12-29T06:24:32;10.50;99.90
23081;DHT22;11708;50.570;8.532;2022-12-29T06:29:24;10.80;99.90
23081;DHT22;11708;50.570;8.532;2022-12-29T06:31:49;10.60;99.90
23081;DHT22;11708;50.570;8.532;2022-12-29T06:34:16;10.70;99.90
23081;DHT22;11708;50.570;8.532;2022-12-29T06:39:07;10.80;99.90
23081;DHT22;11708;50.570;8.532;2022-12-29T06:41:33;10.80;99.90
23081;DHT22;11708;50.570;8.532;2022-12-29T06:43:59;10.80;99.90
23081;DHT22;11708;50.570;8.532;2022-12-29T06:46:24;10.70;99.90
23081;DHT22;11708;50.570;8.532;2022-12-29T06:48:50;10.70;99.90
23081;DHT22;11708;50.570;8.532;2022-12-29T06:53:41;10.80;99.90
23081;DHT22;11708;50.570;8.532;2022-12-29T06:56:07;11.00;99.90
23081;DHT22;11708;50.570;8.532;2022-12-29T06:58:33;10.80;99.90
23081;DHT22;11708;50.570;8.532;2022-12-29T07:03:25;10.80;99.90
23081;DHT22;11708;50.570;8.532;2022-12-29T07:15:36;10.90;99.90
23081;DHT22;11708;50.570;8.532;2022-12-29T07:18:02;10.50;99.90
23081;DHT22;11708;50.570;8.532;2022-12-29T07:20:30;10.90;99.90
23081;DHT22;11708;50.570;8.532;2022-12-29T07:25:22;10.80;99.90
23081;DHT22;11708;50.570;8.532;2022-12-29T07:27:48;10.90;99.90
23081;DHT22;11708;50.570;8.532;2022-12-29T07:32:40;11.00;99.90
23081;DHT22;11708;50.570;8.532;2022-12-29T07:35:06;10.90;99.90
23081;DHT22;11708;50.570;8.532;2022-12-29T07:37:32;10.90;99.90
23081;DHT22;11708;50.570;8.532;2022-12-29T07:39:57;10.90;99.90
23081;DHT22;11708;50.570;8.532;2022-12-29T07:44:49;10.90;99.90
23081;DHT22;11708;50.570;8.532;2022-12-29T07:47:15;10.70;99.90
23081;DHT22;11708;50.570;8.532;2022-12-29T07:49:40;12.80;99.90
23081;DHT22;11708;50.570;8.532;2022-12-29T08:01:51;11.00;99.90
23081;DHT22;11708;50.570;8.532;2022-12-29T08:04:17;11.00;99.90
23081;DHT22;11708;50.570;8.532;2022-12-29T08:06:43;11.10;99.90
23081;DHT22;11708;50.570;8.532;2022-12-29T08:14:03;10.90;99.90
23081;DHT22;11708;50.570;8.532;2022-12-29T08:16:28;11.20;99.90
23081;DHT22;11708;50.570;8.532;2022-12-29T08:21:20;10.80;99.90
23081;DHT22;11708;50.570;8.532;2022-12-29T08:23:47;10.80;99.90
23081;DHT22;11708;50.570;8.532;2022-12-29T08:28:39;10.70;99.90
23081;DHT22;11708;50.570;8.532;2022-12-29T08:31:05;10.60;99.90
23081;DHT22;11708;50.570;8.532;2022-12-29T08:33:31;10.50;99.90
23081;DHT22;11708;50.570;8.532;2022-12-29T08:36:05;10.40;99.90
23081;DHT22;11708;50.570;8.532;2022-12-29T08:45:50;10.40;99.90
23081;DHT22;11708;50.570;8.532;2022-12-29T08:50:45;10.40;99.90
23081;DHT22;11708;50.570;8.532;2022-12-29T08:53:11;10.40;99.90
23081;DHT22;11708;50.570;8.532;2022-12-29T08:55:39;10.40;99.90
23081;DHT22;11708;50.570;8.532;2022-12-29T09:05:23;10.50;99.90
23081;DHT22;11708;50.570;8.532;2022-12-29T09:07:48;10.50;99.90
23081;DHT22;11708;50.570;8.532;2022-12-29T09:15:06;10.50;99.90
23081;DHT22;11708;50.570;8.532;2022-12-29T09:17:33;10.50;99.90
23081;DHT22;11708;50.570;8.532;2022-12-29T09:20:17;10.50;99.90
23081;DHT22;11708;50.570;8.532;2022-12-29T09:22:43;10.50;99.90
23081;DHT22;11708;50.570;8.532;2022-12-29T09:25:10;10.50;99.90
23081;DHT22;11708;50.570;8.532;2022-12-29T09:30:07;10.50;99.90
23081;DHT22;11708;50.570;8.532;2022-12-29T09:32:33;10.50;99.90
23081;DHT22;11708;50.570;8.532;2022-12-29T09:34:59;10.50;99.90
23081;DHT22;11708;50.570;8.532;2022-12-29T09:37:25;10.50;99.90
23081;DHT22;11708;50.570;8.532;2022-12-29T09:39:50;10.70;99.90
23081;DHT22;11708;50.570;8.532;2022-12-29T09:42:27;10.20;99.90
23081;DHT22;11708;50.570;8.532;2022-12-29T09:45:18;10.50;99.90
23081;DHT22;11708;50.570;8.532;2022-12-29T09:47:46;10.50;99.90
23081;DHT22;11708;50.570;8.532;2022-12-29T09:53:00;10.40;99.90
23081;DHT22;11708;50.570;8.532;2022-12-29T09:55:38;10.60;99.90
23081;DHT22;11708;50.570;8.532;2022-12-29T09:58:24;10.60;99.90
23081;DHT22;11708;50.570;8.532;2022-12-29T10:01:16;10.70;99.90
23081;DHT22;11708;50.570;8.532;2022-12-29T10:03:49;10.70;99.90
23081;DHT22;11708;50.570;8.532;2022-12-29T10:08:52;10.80;99.90
23081;DHT22;11708;50.570;8.532;2022-12-29T10:14:24;10.80;99.90
23081;DHT22;11708;50.570;8.532;2022-12-29T10:25:19;10.80;99.90
23081;DHT22;11708;50.570;8.532;2022-12-29T10:27:48;10.80;99.90
23081;DHT22;11708;50.570;8.532;2022-12-29T10:30:15;10.80;99.90
23081;DHT22;11708;50.570;8.532;2022-12-29T10:33:12;10.80;99.90
23081;DHT22;11708;50.570;8.532;2022-12-29T10:35:39;10.80;99.90
23081;DHT22;11708;50.570;8.532;2022-12-29T10:38:28;10.90;99.90
23081;DHT22;11708;50.570;8.532;2022-12-29T10:41:44;10.90;99.90
23081;DHT22;11708;50.570;8.532;2022-12-29T10:44:15;10.90;99.90
23081;DHT22;11708;50.570;8.532;2022-12-29T10:46:43;10.80;99.90
23081;DHT22;11708;50.570;8.532;2022-12-29T10:49:17;10.90;99.90
23081;DHT22;11708;50.570;8.532;2022-12-29T10:51:45;10.90;99.90
23081;DHT22;11708;50.570;8.532;2022-12-29T10:54:36;11.50;99.90
23081;DHT22;11708;50.570;8.532;2022-12-29T10:59:44;10.80;99.90
23081;DHT22;11708;50.570;8.532;2022-12-29T11:07:07;10.70;99.90
23081;DHT22;11708;50.570;8.532;2022-12-29T11:09:36;10.60;99.90
23081;DHT22;11708;50.570;8.532;2022-12-29T11:12:23;10.60;99.90
23081;DHT22;11708;50.570;8.532;2022-12-29T11:17:26;10.60;99.90
23081;DHT22;11708;50.570;8.532;2022-12-29T11:19:51;10.90;99.90
23081;DHT22;11708;50.570;8.532;2022-12-29T11:22:21;10.80;99.90
23081;DHT22;11708;50.570;8.532;2022-12-29T11:24:49;10.70;99.90
23081;DHT22;11708;50.570;8.532;2022-12-29T11:27:18;10.70;99.90
23081;DHT22;11708;50.570;8.532;2022-12-29T11:29:46;10.70;99.90
23081;DHT22;11708;50.570;8.532;2022-12-29T11:32:18;10.70;99.90
23081;DHT22;11708;50.570;8.532;2022-12-29T11:34:44;10.70;99.90
23081;DHT22;11708;50.570;8.532;2022-12-29T11:39:40;10.70;99.90
23081;DHT22;11708;50.570;8.532;2022-12-29T11:42:14;11.30;99.90
23081;DHT22;11708;50.570;8.532;2022-12-29T11:44:44;10.70;99.90
23081;DHT22;11708;50.570;8.532;2022-12-29T11:47:23;10.70;99.90
23081;DHT22;11708;50.570;8.532;2022-12-29T11:50:02;10.70;99.90
23081;DHT22;11708;50.570;8.532;2022-12-29T11:52:32;10.70;99.90
23081;DHT22;11708;50.570;8.532;2022-12-29T11:55:02;10.80;99.90
23081;DHT22;11708;50.570;8.532;2022-12-29T11:57:31;10.60;99.90
23081;DHT22;11708;50.570;8.532;2022-12-29T11:59:59;10.80;99.90
23081;DHT22;11708;50.570;8.532;2022-12-29T12:10:44;10.80;99.90
23081;DHT22;11708;50.570;8.532;2022-12-29T12:13:33;10.80;99.90
23081;DHT22;11708;50.570;8.532;2022-12-29T12:18:42;10.80;99.90
23081;DHT22;11708;50.570;8.532;2022-12-29T12:21:40;10.80;99.90
23081;DHT22;11708;50.570;8.532;2022-12-29T12:27:26;10.90;99.90
23081;DHT22;11708;50.570;8.532;2022-12-29T12:29:59;10.90;99.90
23081;DHT22;11708;50.570;8.532;2022-12-29T12:32:49;11.00;99.90
23081;DHT22;11708;50.570;8.532;2022-12-29T12:40:34;11.10;99.90
23081;DHT22;11708;50.570;8.532;2022-12-29T12:59:51;11.40;99.90
23081;DHT22;11708;50.570;8.532;2022-12-29T13:02:34;11.40;99.90
23081;DHT22;11708;50.570;8.532;2022-12-29T13:16:54;11.30;99.90
23081;DHT22;11708;50.570;8.532;2022-12-29T13:19:30;11.30;99.90
23081;DHT22;11708;50.570;8.532;2022-12-29T13:22:19;11.30;99.90
23081;DHT22;11708;50.570;8.532;2022-12-29T13:28:03;11.30;99.90
23081;DHT22;11708;50.570;8.532;2022-12-29T13:33:31;11.30;99.90
23081;DHT22;11708;50.570;8.532;2022-12-29T13:36:27;11.30;99.90
23081;DHT22;11708;50.570;8.532;2022-12-29T13:39:15;11.30;99.90
23081;DHT22;11708;50.570;8.532;2022-12-29T13:41:51;11.30;99.90
23081;DHT22;11708;50.570;8.532;2022-12-29T13:44:28;11.20;99.90
23081;DHT22;11708;50.570;8.532;2022-12-29T13:46:56;11.20;99.90
23081;DHT22;11708;50.570;8.532;2022-12-29T13:49:24;11.30;99.90
23081;DHT22;11708;50.570;8.532;2022-12-29T13:51:55;11.30;99.90
23081;DHT22;11708;50.570;8.532;2022-12-29T13:57:10;11.90;99.90
23081;DHT22;11708;50.570;8.532;2022-12-29T13:59:54;11.50;99.90
23081;DHT22;11708;50.570;8.532;2022-12-29T14:08:01;11.50;99.90
23081;DHT22;11708;50.570;8.532;2022-12-29T14:10:33;11.60;99.90
23081;DHT22;11708;50.570;8.532;2022-12-29T14:13:14;11.50;99.90
23081;DHT22;11708;50.570;8.532;2022-12-29T14:15:43;11.50;99.90
23081;DHT22;11708;50.570;8.532;2022-12-29T14:18:21;11.60;99.90
23081;DHT22;11708;50.570;8.532;2022-12-29T14:23:47;11.60;99.90
23081;DHT22;11708;50.570;8.532;2022-12-29T14:28:55;11.40;99.90
23081;DHT22;11708;50.570;8.532;2022-12-29T14:36:41;11.20;99.90
23081;DHT22;11708;50.570;8.532;2022-12-29T14:47:34;11.20;99.90
23081;DHT22;11708;50.570;8.532;2022-12-29T14:50:39;11.10;99.90
23081;DHT22;11708;50.570;8.532;2022-12-29T14:53:06;11.10;99.90
23081;DHT22;11708;50.570;8.532;2022-12-29T14:55:47;11.10;99.90
23081;DHT22;11708;50.570;8.532;2022-12-29T14:58:43;11.00;99.90
23081;DHT22;11708;50.570;8.532;2022-12-29T15:01:39;11.30;99.90
23081;DHT22;11708;50.570;8.532;2022-12-29T15:06:45;10.80;99.90
23081;DHT22;11708;50.570;8.532;2022-12-29T15:09:17;10.60;99.90
23081;DHT22;11708;50.570;8.532;2022-12-29T15:12:50;11.00;99.90
23081;DHT22;11708;50.570;8.532;2022-12-29T15:14:53;12.50;99.90
23081;DHT22;11708;50.570;8.532;2022-12-29T15:17:26;11.00;99.90
23081;DHT22;11708;50.570;8.532;2022-12-29T15:19:53;11.00;99.90
23081;DHT22;11708;50.570;8.532;2022-12-29T15:22:20;11.00;99.90
23081;DHT22;11708;50.570;8.532;2022-12-29T15:24:46;11.00;99.90
23081;DHT22;11708;50.570;8.532;2022-12-29T15:27:19;11.00;99.90
23081;DHT22;11708;50.570;8.532;2022-12-29T15:29:45;10.90;99.90
23081;DHT22;11708;50.570;8.532;2022-12-29T15:32:39;10.80;99.90
23081;DHT22;11708;50.570;8.532;2022-12-29T15:35:31;10.90;99.90
23081;DHT22;11708;50.570;8.532;2022-12-29T15:37:58;10.90;99.90
23081;DHT22;11708;50.570;8.532;2022-12-29T15:40:30;10.90;99.90
23081;DHT22;11708;50.570;8.532;2022-12-29T15:45:35;10.80;99.90
23081;DHT22;11708;50.570;8.532;2022-12-29T15:48:01;10.80;99.90
23081;DHT22;11708;50.570;8.532;2022-12-29T15:50:30;10.70;99.90
23081;DHT22;11708;50.570;8.532;2022-12-29T15:52:57;10.70;99.90
23081;DHT22;11708;50.570;8.532;2022-12-29T15:55:34;10.70;99.90
23081;DHT22;11708;50.570;8.532;2022-12-29T15:58:03;10.60;99.90
23081;DHT22;11708;50.570;8.532;2022-12-29T16:00:32;10.70;99.90
23081;DHT22;11708;50.570;8.532;2022-12-29T16:03:00;10.70;99.90
23081;DHT22;11708;50.570;8.532;2022-12-29T16:05:54;10.60;99.90
23081;DHT22;11708;50.570;8.532;2022-12-29T16:11:00;10.60;99.90
23081;DHT22;11708;50.570;8.532;2022-12-29T16:13:34;10.50;99.90
23081;DHT22;11708;50.570;8.532;2022-12-29T16:16:18;10.50;99.90
23081;DHT22;11708;50.570;8.532;2022-12-29T16:18:44;10.40;99.90
23081;DHT22;11708;50.570;8.532;2022-12-29T16:21:25;10.40;99.90
23081;DHT22;11708;50.570;8.532;2022-12-29T16:23:53;10.30;99.90
23081;DHT22;11708;50.570;8.532;2022-12-29T16:26:21;10.30;99.90
23081;DHT22;11708;50.570;8.532;2022-12-29T16:28:50;10.10;99.90
23081;DHT22;11708;50.570;8.532;2022-12-29T16:31:35;10.20;99.90
23081;DHT22;11708;50.570;8.532;2022-12-29T16:34:41;10.10;99.90
23081;DHT22;11708;50.570;8.532;2022-12-29T16:37:28;10.10;99.90
23081;DHT22;11708;50.570;8.532;2022-12-29T16:39:54;10.10;99.90
23081;DHT22;11708;50.570;8.532;2022-12-29T16:50:35;10.00;99.90
23081;DHT22;11708;50.570;8.532;2022-12-29T16:53:02;9.90;99.90
23081;DHT22;11708;50.570;8.532;2022-12-29T16:55:29;9.90;99.90
23081;DHT22;11708;50.570;8.532;2022-12-29T16:57:55;9.90;99.90
23081;DHT22;11708;50.570;8.532;2022-12-29T17:00:24;9.90;99.90
23081;DHT22;11708;50.570;8.532;2022-12-29T17:02:54;9.90;99.90
23081;DHT22;11708;50.570;8.532;2022-12-29T17:12:42;9.80;99.90
23081;DHT22;11708;50.570;8.532;2022-12-29T17:15:15;9.60;99.90
23081;DHT22;11708;50.570;8.532;2022-12-29T17:17:45;9.80;99.90
23081;DHT22;11708;50.570;8.532;2022-12-29T17:20:20;9.90;99.90
23081;DHT22;11708;50.570;8.532;2022-12-29T17:22:47;9.80;99.90
23081;DHT22;11708;50.570;8.532;2022-12-29T17:25:15;9.70;99.90
23081;DHT22;11708;50.570;8.532;2022-12-29T17:30:18;9.70;99.90
23081;DHT22;11708;50.570;8.532;2022-12-29T17:32:50;9.80;99.90
23081;DHT22;11708;50.570;8.532;2022-12-29T17:35:18;9.70;99.90
23081;DHT22;11708;50.570;8.532;2022-12-29T17:37:44;9.40;99.90
23081;DHT22;11708;50.570;8.532;2022-12-29T17:40:16;9.60;99.90
23081;DHT22;11708;50.570;8.532;2022-12-29T17:42:44;9.60;99.90
23081;DHT22;11708;50.570;8.532;2022-12-29T17:45:15;9.60;99.90
23081;DHT22;11708;50.570;8.532;2022-12-29T17:50:12;9.50;99.90
23081;DHT22;11708;50.570;8.532;2022-12-29T17:52:39;9.50;99.90
23081;DHT22;11708;50.570;8.532;2022-12-29T17:55:05;9.40;99.90
23081;DHT22;11708;50.570;8.532;2022-12-29T17:57:30;9.50;99.90
23081;DHT22;11708;50.570;8.532;2022-12-29T17:59:56;9.50;99.90
23081;DHT22;11708;50.570;8.532;2022-12-29T18:02:25;9.60;99.90
23081;DHT22;11708;50.570;8.532;2022-12-29T18:04:51;9.60;99.90
23081;DHT22;11708;50.570;8.532;2022-12-29T18:07:17;9.60;99.90
23081;DHT22;11708;50.570;8.532;2022-12-29T18:12:32;9.50;99.90
23081;DHT22;11708;50.570;8.532;2022-12-29T18:14:59;9.50;99.90
23081;DHT22;11708;50.570;8.532;2022-12-29T18:19:51;9.40;99.90
23081;DHT22;11708;50.570;8.532;2022-12-29T18:22:19;9.40;99.90
23081;DHT22;11708;50.570;8.532;2022-12-29T18:24:45;9.30;99.90
23081;DHT22;11708;50.570;8.532;2022-12-29T18:27:14;9.20;99.90
23081;DHT22;11708;50.570;8.532;2022-12-29T18:29:40;9.20;99.90
23081;DHT22;11708;50.570;8.532;2022-12-29T18:32:12;9.10;99.90
23081;DHT22;11708;50.570;8.532;2022-12-29T18:34:39;9.10;99.90
23081;DHT22;11708;50.570;8.532;2022-12-29T18:37:05;9.00;99.90
23081;DHT22;11708;50.570;8.532;2022-12-29T18:39:32;8.90;99.90
23081;DHT22;11708;50.570;8.532;2022-12-29T18:41:57;8.80;99.90
23081;DHT22;11708;50.570;8.532;2022-12-29T18:44:23;8.70;99.90
23081;DHT22;11708;50.570;8.532;2022-12-29T18:46:50;8.40;99.90
23081;DHT22;11708;50.570;8.532;2022-12-29T18:49:16;8.50;99.90
23081;DHT22;11708;50.570;8.532;2022-12-29T18:54:24;8.30;99.90
23081;DHT22;11708;50.570;8.532;2022-12-29T18:56:50;8.40;99.90
23081;DHT22;11708;50.570;8.532;2022-12-29T18:59:15;8.20;99.90
23081;DHT22;11708;50.570;8.532;2022-12-29T19:04:11;8.10;99.90
23081;DHT22;11708;50.570;8.532;2022-12-29T19:09:05;8.10;99.90
23081;DHT22;11708;50.570;8.532;2022-12-29T19:11:31;8.10;99.90
23081;DHT22;11708;50.570;8.532;2022-12-29T19:13:57;8.10;99.90
23081;DHT22;11708;50.570;8.532;2022-12-29T19:16:22;8.10;99.90
23081;DHT22;11708;50.570;8.532;2022-12-29T19:18:49;8.10;99.90
23081;DHT22;11708;50.570;8.532;2022-12-29T19:21:15;8.10;99.90
23081;DHT22;11708;50.570;8.532;2022-12-29T19:23:41;8.10;99.90
23081;DHT22;11708;50.570;8.532;2022-12-29T19:26:38;8.10;99.90
23081;DHT22;11708;50.570;8.532;2022-12-29T19:29:03;8.10;99.90
23081;DHT22;11708;50.570;8.532;2022-12-29T19:33:55;8.00;99.90
23081;DHT22;11708;50.570;8.532;2022-12-29T19:36:21;8.00;99.90
23081;DHT22;11708;50.570;8.532;2022-12-29T19:41:13;7.90;99.90
23081;DHT22;11708;50.570;8.532;2022-12-29T19:46:10;7.90;99.90
23081;DHT22;11708;50.570;8.532;2022-12-29T19:48:37;7.90;99.90
23081;DHT22;11708;50.570;8.532;2022-12-29T19:51:07;8.00;99.90
23081;DHT22;11708;50.570;8.532;2022-12-29T19:56:05;8.10;99.90
23081;DHT22;11708;50.570;8.532;2022-12-29T19:58:31;8.10;99.90
23081;DHT22;11708;50.570;8.532;2022-12-29T20:01:15;8.10;99.90
23081;DHT22;11708;50.570;8.532;2022-12-29T20:03:41;8.10;99.90
23081;DHT22;11708;50.570;8.532;2022-12-29T20:06:08;8.20;99.90
23081;DHT22;11708;50.570;8.532;2022-12-29T20:08:36;8.20;99.90
23081;DHT22;11708;50.570;8.532;2022-12-29T20:13:31;8.20;99.90
23081;DHT22;11708;50.570;8.532;2022-12-29T20:15:59;8.30;99.90
23081;DHT22;11708;50.570;8.532;2022-12-29T20:18:25;8.30;99.90
23081;DHT22;11708;50.570;8.532;2022-12-29T20:20:51;8.40;99.90
23081;DHT22;11708;50.570;8.532;2022-12-29T20:23:16;8.30;99.90
23081;DHT22;11708;50.570;8.532;2022-12-29T20:28:08;8.30;99.90
23081;DHT22;11708;50.570;8.532;2022-12-29T20:30:35;8.30;99.90
23081;DHT22;11708;50.570;8.532;2022-12-29T20:33:01;8.20;99.90
23081;DHT22;11708;50.570;8.532;2022-12-29T20:35:27;8.20;99.90
23081;DHT22;11708;50.570;8.532;2022-12-29T20:37:52;8.20;99.90
23081;DHT22;11708;50.570;8.532;2022-12-29T20:40:18;8.20;99.90
23081;DHT22;11708;50.570;8.532;2022-12-29T20:42:43;8.10;99.90
23081;DHT22;11708;50.570;8.532;2022-12-29T20:45:09;8.10;99.90
23081;DHT22;11708;50.570;8.532;2022-12-29T20:47:35;8.80;99.90
23081;DHT22;11708;50.570;8.532;2022-12-29T20:50:01;8.20;99.90
23081;DHT22;11708;50.570;8.532;2022-12-29T20:52:26;8.20;99.90
23081;DHT22;11708;50.570;8.532;2022-12-29T20:54:52;8.20;99.90
23081;DHT22;11708;50.570;8.532;2022-12-29T20:57:18;9.00;99.90
23081;DHT22;11708;50.570;8.532;2022-12-29T20:59:44;8.30;99.90